Time;durP1;ratioP1;P1;durP2;ratioP2;P2;SDS_P1;SDS_P2;PMS_P1;PMS_P2;Temp;Humidity;BMP_temperature;BMP_pressure;BME280_temperature;BME280_humidity;BME280_pressure;Samples;Min_cycle;Max_cycle;Signal;HPM_P1;HPM_P2
2023/08/14 00:00:51;;;;;;;13.90;8.27;;;15.70;99.90;;;;;;4993711;28;20024;-86
2023/08/14 00:03:18;;;;;;;9.98;8.77;;;15.70;99.90;;;;;;4996695;28;20052;-86
2023/08/14 00:05:43;;;;;;;14.57;9.45;;;15.70;99.90;;;;;;5007357;28;20022;-87
2023/08/14 00:08:09;;;;;;;13.88;9.10;;;15.70;99.90;;;;;;4993972;28;20072;-87
2023/08/14 00:10:34;;;;;;;12.27;9.40;;;15.70;99.90;;;;;;4994652;28;20437;-86
2023/08/14 00:13:00;;;;;;;14.13;10.30;;;15.70;99.90;;;;;;5010664;28;20540;-86
2023/08/14 00:15:25;;;;;;;9.02;8.13;;;15.70;99.90;;;;;;4994034;28;20026;-86
2023/08/14 00:17:51;;;;;;;11.10;8.93;;;15.70;99.90;;;;;;4993154;28;20128;-86
2023/08/14 00:20:17;;;;;;;13.43;8.88;;;15.70;99.90;;;;;;4993831;28;20490;-86
2023/08/14 00:22:42;;;;;;;14.07;8.85;;;15.70;99.90;;;;;;4994203;28;20084;-86
2023/08/14 00:25:09;;;;;;;9.68;5.60;;;15.60;99.90;;;;;;4990623;28;20528;-86
2023/08/14 00:27:34;;;;;;;9.00;5.15;;;15.60;99.90;;;;;;4998191;28;20026;-85
2023/08/14 00:30:01;;;;;;;8.65;6.05;;;15.50;99.90;;;;;;4993422;28;20101;-86
2023/08/14 00:32:26;;;;;;;12.25;6.20;;;15.50;99.90;;;;;;4993807;28;20041;-85
2023/08/14 00:34:52;;;;;;;14.00;7.00;;;15.40;99.90;;;;;;4992517;28;20022;-86
2023/08/14 00:37:17;;;;;;;11.38;7.82;;;15.40;99.90;;;;;;4993770;28;20037;-86
2023/08/14 00:39:44;;;;;;;11.60;7.30;;;15.30;99.90;;;;;;4993790;28;20120;-86
2023/08/14 00:42:09;;;;;;;10.10;7.95;;;15.40;99.90;;;;;;4993626;28;20034;-86
2023/08/14 00:44:35;;;;;;;11.30;6.07;;;15.40;99.90;;;;;;4992805;28;20022;-86
2023/08/14 00:47:00;;;;;;;6.55;5.10;;;15.40;99.90;;;;;;4992119;28;20509;-86
2023/08/14 00:49:26;;;;;;;7.72;6.15;;;15.30;99.90;;;;;;4993630;28;20053;-86
2023/08/14 00:51:52;;;;;;;12.95;8.82;;;15.30;99.90;;;;;;4993164;28;20026;-85
2023/08/14 00:54:18;;;;;;;8.25;6.82;;;15.30;99.90;;;;;;4991618;28;20082;-86
2023/08/14 00:56:44;;;;;;;10.52;7.40;;;15.30;99.90;;;;;;4993534;28;20096;-85
2023/08/14 00:59:10;;;;;;;10.43;8.48;;;15.30;99.90;;;;;;4991303;28;20601;-85
2023/08/14 01:01:36;;;;;;;12.70;7.70;;;15.30;99.90;;;;;;4994250;28;20453;-86
2023/08/14 01:04:02;;;;;;;9.82;7.28;;;15.30;99.90;;;;;;4992369;28;20037;-86
2023/08/14 01:06:27;;;;;;;8.35;6.93;;;15.30;99.90;;;;;;4991299;28;20038;-86
2023/08/14 01:08:53;;;;;;;12.82;8.63;;;15.30;99.90;;;;;;4992141;28;20526;-86
2023/08/14 01:11:33;;;;;;;13.02;8.23;;;15.20;99.90;;;;;;4992001;28;20121;-86
2023/08/14 01:14:23;;;;;;;10.45;7.95;;;15.20;99.90;;;;;;4988475;28;20105;-86
2023/08/14 01:16:54;;;;;;;13.98;9.20;;;15.30;99.90;;;;;;4993150;28;20861;-86
2023/08/14 01:19:31;;;;;;;14.07;9.32;;;15.20;99.90;;;;;;4993333;28;20026;-86
2023/08/14 01:22:29;;;;;;;13.02;9.02;;;15.30;99.90;;;;;;4986788;28;20696;-86
2023/08/14 01:25:22;;;;;;;19.02;11.63;;;15.30;99.90;;;;;;4993326;28;20153;-86
2023/08/14 01:27:49;;;;;;;12.20;8.82;;;15.30;99.90;;;;;;5010773;28;20041;-86
2023/08/14 01:30:14;;;;;;;16.58;10.30;;;15.30;99.90;;;;;;4994701;28;20022;-86
2023/08/14 01:32:40;;;;;;;15.05;9.80;;;15.30;99.90;;;;;;5008846;28;20037;-86
2023/08/14 01:35:06;;;;;;;17.25;11.88;;;15.30;99.90;;;;;;4992714;28;20068;-86
2023/08/14 01:37:56;;;;;;;16.00;10.82;;;15.30;99.90;;;;;;4993191;28;20026;-85
2023/08/14 01:40:42;;;;;;;16.75;11.77;;;15.30;99.90;;;;;;5007747;28;20129;-86
2023/08/14 01:43:10;;;;;;;17.25;12.60;;;15.30;99.90;;;;;;5009025;28;20510;-86
2023/08/14 01:45:36;;;;;;;21.33;12.68;;;15.30;99.90;;;;;;4993756;28;20048;-86
2023/08/14 01:48:04;;;;;;;22.02;13.20;;;15.30;99.90;;;;;;5010847;28;20042;-86
2023/08/14 01:50:32;;;;;;;20.80;11.95;;;15.30;99.90;;;;;;5013979;28;20109;-87
2023/08/14 01:52:57;;;;;;;24.27;13.80;;;15.20;99.90;;;;;;4995521;28;20497;-86
2023/08/14 01:55:24;;;;;;;13.40;11.38;;;15.20;99.90;;;;;;5014573;28;20045;-87
2023/08/14 01:57:53;;;;;;;14.57;11.68;;;15.20;99.90;;;;;;4996424;28;20521;-86
2023/08/14 02:00:20;;;;;;;16.30;11.85;;;15.20;99.90;;;;;;5013624;28;20022;-86
2023/08/14 02:02:46;;;;;;;22.77;13.18;;;15.10;99.90;;;;;;5013495;28;20030;-87
2023/08/14 02:05:11;;;;;;;15.05;12.30;;;15.10;99.90;;;;;;5013887;28;20494;-87
2023/08/14 02:07:37;;;;;;;24.10;13.73;;;15.10;99.90;;;;;;5012167;28;20073;-86
2023/08/14 02:10:03;;;;;;;21.58;13.55;;;15.10;99.90;;;;;;4996831;28;20026;-86
2023/08/14 02:12:30;;;;;;;19.27;13.02;;;15.10;99.90;;;;;;4995684;28;20437;-86
2023/08/14 02:14:56;;;;;;;23.75;14.48;;;15.10;99.90;;;;;;5014194;28;20032;-86
2023/08/14 02:17:22;;;;;;;21.60;15.10;;;15.00;99.90;;;;;;5014010;28;20030;-86
2023/08/14 02:19:48;;;;;;;22.63;14.65;;;15.10;99.90;;;;;;4995880;28;20080;-86
2023/08/14 02:22:13;;;;;;;19.73;14.93;;;15.00;99.90;;;;;;4996011;28;20033;-86
2023/08/14 02:24:39;;;;;;;20.80;15.30;;;15.00;99.90;;;;;;4995191;28;20028;-86
2023/08/14 02:27:05;;;;;;;22.30;14.98;;;15.00;99.90;;;;;;4996605;28;20098;-86
2023/08/14 02:29:30;;;;;;;18.17;14.50;;;15.00;99.90;;;;;;4996357;28;20531;-86
2023/08/14 02:31:56;;;;;;;18.02;14.35;;;15.00;99.90;;;;;;4995452;28;20037;-86
2023/08/14 02:34:45;;;;;;;9.85;8.90;;;14.90;99.90;;;;;;4994886;28;20041;-86
2023/08/14 02:37:11;;;;;;;15.65;10.25;;;14.90;99.90;;;;;;4980000;28;20030;-86
2023/08/14 02:39:37;;;;;;;16.23;12.02;;;14.80;99.90;;;;;;5011181;28;20045;-86
2023/08/14 02:42:03;;;;;;;19.70;13.38;;;14.80;99.90;;;;;;5007459;28;20026;-86
2023/08/14 02:44:29;;;;;;;19.77;13.98;;;14.80;99.90;;;;;;4994023;28;20113;-86
2023/08/14 02:46:54;;;;;;;23.33;13.77;;;14.80;99.90;;;;;;4993593;28;20500;-86
2023/08/14 02:49:20;;;;;;;19.50;14.43;;;14.80;99.90;;;;;;4997133;28;20014;-86
2023/08/14 02:51:45;;;;;;;19.00;12.60;;;14.80;99.90;;;;;;4996006;28;20029;-86
2023/08/14 02:54:11;;;;;;;24.58;14.07;;;14.80;99.90;;;;;;4994863;28;20053;-87
2023/08/14 02:56:37;;;;;;;19.05;12.80;;;14.80;99.90;;;;;;4994159;28;20435;-86
2023/08/14 02:59:02;;;;;;;19.35;14.13;;;14.80;99.90;;;;;;5011362;28;20026;-87
2023/08/14 03:01:28;;;;;;;22.00;14.70;;;14.80;99.90;;;;;;4998321;28;20109;-87
2023/08/14 03:03:53;;;;;;;18.60;14.68;;;14.80;99.90;;;;;;4996108;28;20030;-87
2023/08/14 03:06:19;;;;;;;20.02;14.35;;;14.80;99.90;;;;;;4996519;28;20038;-86
2023/08/14 03:08:44;;;;;;;15.52;11.70;;;14.70;99.90;;;;;;4996619;28;20453;-87
2023/08/14 03:11:10;;;;;;;19.17;12.52;;;14.70;99.90;;;;;;4998241;28;20092;-86
2023/08/14 03:13:35;;;;;;;21.42;13.65;;;14.70;99.90;;;;;;4995018;28;20053;-86
2023/08/14 03:16:01;;;;;;;20.50;13.85;;;14.70;99.90;;;;;;5003688;28;20026;-86
2023/08/14 03:18:26;;;;;;;19.85;13.77;;;14.70;99.90;;;;;;5013386;28;20029;-86
2023/08/14 03:20:52;;;;;;;20.75;14.95;;;14.70;99.90;;;;;;5012416;28;20026;-87
2023/08/14 03:23:17;;;;;;;23.88;16.27;;;14.70;99.90;;;;;;4993962;28;20018;-87
2023/08/14 03:25:43;;;;;;;24.25;16.92;;;14.70;99.90;;;;;;4996368;28;20048;-86
2023/08/14 03:28:08;;;;;;;29.02;17.33;;;14.60;99.90;;;;;;5002328;28;20041;-86
2023/08/14 03:30:39;;;;;;;21.85;16.70;;;14.70;99.90;;;;;;4997718;28;20116;-87
2023/08/14 03:33:05;;;;;;;25.60;15.68;;;14.70;99.90;;;;;;4981864;28;20501;-86
2023/08/14 03:35:30;;;;;;;25.33;17.15;;;14.60;99.90;;;;;;4991483;28;20030;-86
2023/08/14 03:37:56;;;;;;;23.75;16.55;;;14.70;99.90;;;;;;4995108;28;20030;-86
2023/08/14 03:40:21;;;;;;;26.38;16.73;;;14.70;99.90;;;;;;4996233;28;20025;-86
2023/08/14 03:42:47;;;;;;;26.50;17.70;;;14.70;99.90;;;;;;4994054;28;20037;-87
2023/08/14 03:45:12;;;;;;;30.08;19.55;;;14.70;99.90;;;;;;5000877;28;20544;-86
2023/08/14 03:47:38;;;;;;;28.02;18.00;;;14.70;99.90;;;;;;5013240;28;20049;-87
2023/08/14 03:50:04;;;;;;;27.90;17.25;;;14.70;99.90;;;;;;4995804;28;20026;-87
2023/08/14 03:52:30;;;;;;;23.77;17.38;;;14.70;99.90;;;;;;5000996;28;20386;-87
2023/08/14 03:54:55;;;;;;;26.15;17.05;;;14.70;99.90;;;;;;4998632;28;20052;-86
2023/08/14 03:57:21;;;;;;;27.40;17.02;;;14.70;99.90;;;;;;4995820;28;20037;-87
2023/08/14 03:59:46;;;;;;;25.77;16.65;;;14.70;99.90;;;;;;4995162;28;20044;-86
2023/08/14 04:02:12;;;;;;;30.25;16.95;;;14.70;99.90;;;;;;4995295;28;20508;-87
2023/08/14 04:04:38;;;;;;;28.23;17.30;;;14.70;99.90;;;;;;4995579;28;20133;-86
2023/08/14 04:07:03;;;;;;;26.08;16.83;;;14.70;99.90;;;;;;4995011;28;20605;-87
2023/08/14 04:09:29;;;;;;;21.58;15.63;;;14.70;99.90;;;;;;4994173;28;20030;-87
2023/08/14 04:11:54;;;;;;;24.67;16.80;;;14.70;99.90;;;;;;4992862;28;20034;-87
2023/08/14 04:14:20;;;;;;;24.80;16.92;;;14.70;99.90;;;;;;4993881;28;20112;-87
2023/08/14 04:16:46;;;;;;;25.60;17.80;;;14.70;99.90;;;;;;4994160;28;20026;-87
2023/08/14 04:19:14;;;;;;;23.17;17.00;;;14.70;99.90;;;;;;4987981;28;20026;-87
2023/08/14 04:21:40;;;;;;;27.48;18.23;;;14.70;99.90;;;;;;4994807;28;20026;-87
2023/08/14 04:24:07;;;;;;;27.52;18.00;;;14.70;99.90;;;;;;4986407;28;20112;-88
2023/08/14 04:26:32;;;;;;;24.45;18.35;;;14.70;99.90;;;;;;4986575;28;20038;-87
2023/08/14 04:28:58;;;;;;;30.00;17.92;;;14.70;99.90;;;;;;4993946;28;20041;-87
2023/08/14 04:31:23;;;;;;;30.20;18.27;;;14.70;99.90;;;;;;4997654;28;20062;-87
2023/08/14 04:33:49;;;;;;;27.75;17.67;;;14.70;99.90;;;;;;4994260;28;20030;-87
2023/08/14 04:36:14;;;;;;;23.02;16.17;;;14.70;99.90;;;;;;4999339;28;20021;-86
2023/08/14 04:38:40;;;;;;;26.58;16.95;;;14.80;99.90;;;;;;4994462;28;20034;-87
2023/08/14 04:41:05;;;;;;;28.08;17.38;;;14.80;99.90;;;;;;4993714;28;20099;-85
2023/08/14 04:43:31;;;;;;;29.00;19.15;;;14.80;99.90;;;;;;4994236;28;20054;-86
2023/08/14 04:46:10;;;;;;;24.48;17.20;;;14.80;99.90;;;;;;4993454;28;20440;-86
2023/08/14 04:48:36;;;;;;;28.67;18.88;;;14.90;99.90;;;;;;4994935;28;20044;-86
2023/08/14 04:51:02;;;;;;;30.13;19.10;;;14.90;99.90;;;;;;5011558;28;20021;-86
2023/08/14 04:53:28;;;;;;;29.55;18.35;;;15.00;99.90;;;;;;4993323;28;20073;-86
2023/08/14 04:55:53;;;;;;;24.75;18.25;;;15.00;99.90;;;;;;4994571;28;20431;-86
2023/08/14 04:58:19;;;;;;;35.65;20.67;;;15.00;99.90;;;;;;5010067;28;20228;-86
2023/08/14 05:00:44;;;;;;;30.92;18.75;;;15.10;99.90;;;;;;4988089;28;20030;-86
2023/08/14 05:03:10;;;;;;;27.77;19.75;;;15.20;99.90;;;;;;5017248;28;20080;-86
2023/08/14 05:05:35;;;;;;;23.38;17.75;;;15.30;99.90;;;;;;4995382;28;20073;-87
2023/08/14 05:08:01;;;;;;;28.27;19.38;;;15.30;99.90;;;;;;5020382;28;20049;-87
2023/08/14 05:10:26;;;;;;;27.73;19.55;;;15.40;99.90;;;;;;4997832;28;20138;-87
2023/08/14 05:12:52;;;;;;;29.33;19.65;;;15.40;99.90;;;;;;4993995;28;20124;-87
2023/08/14 05:15:17;;;;;;;28.75;20.40;;;15.50;99.90;;;;;;4998490;28;20120;-87
2023/08/14 05:17:43;;;;;;;32.47;20.27;;;15.60;99.90;;;;;;4994269;28;20122;-87
2023/08/14 05:20:09;;;;;;;32.92;18.95;;;15.70;99.90;;;;;;5009918;28;20053;-87
2023/08/14 05:22:35;;;;;;;29.27;19.08;;;15.70;99.90;;;;;;4991693;28;20030;-86
2023/08/14 05:25:00;;;;;;;27.38;19.23;;;15.80;99.90;;;;;;4994668;28;20021;-86
2023/08/14 05:27:26;;;;;;;30.60;21.35;;;15.90;99.90;;;;;;5002384;28;20508;-86
2023/08/14 05:29:51;;;;;;;30.85;21.23;;;16.00;99.90;;;;;;4993432;28;20026;-86
2023/08/14 05:32:17;;;;;;;26.77;20.50;;;16.10;99.90;;;;;;5011403;28;20022;-86
2023/08/14 05:34:42;;;;;;;26.30;20.45;;;16.20;99.90;;;;;;5020412;28;20038;-86
2023/08/14 05:37:08;;;;;;;29.38;20.85;;;16.40;99.90;;;;;;4997763;28;20021;-87
2023/08/14 05:39:33;;;;;;;35.00;21.25;;;16.50;99.90;;;;;;4996815;28;20080;-86
2023/08/14 05:41:59;;;;;;;34.60;22.58;;;16.60;99.90;;;;;;5011928;28;20476;-84
2023/08/14 05:44:24;;;;;;;28.63;19.48;;;16.70;99.90;;;;;;5010428;28;20033;-86
2023/08/14 05:46:50;;;;;;;36.50;19.55;;;16.80;99.90;;;;;;5011291;28;20043;-85
2023/08/14 05:49:16;;;;;;;28.35;19.85;;;16.90;99.90;;;;;;5009874;28;20033;-85
2023/08/14 05:51:41;;;;;;;23.58;17.88;;;17.00;99.90;;;;;;5005532;28;20034;-86
2023/08/14 05:54:07;;;;;;;39.42;21.13;;;17.10;99.90;;;;;;5014163;28;20065;-84
2023/08/14 05:56:32;;;;;;;27.70;19.85;;;17.10;99.90;;;;;;5010045;28;20390;-84
2023/08/14 05:58:58;;;;;;;32.72;20.08;;;17.20;99.90;;;;;;5015743;28;20037;-87
2023/08/14 06:01:24;;;;;;;30.35;19.98;;;17.30;99.90;;;;;;4999316;28;20026;-87
2023/08/14 06:03:49;;;;;;;25.95;19.20;;;17.40;99.90;;;;;;5024810;28;20025;-87
2023/08/14 06:06:15;;;;;;;30.35;21.27;;;17.40;99.90;;;;;;5000828;28;20057;-86
2023/08/14 06:08:41;;;;;;;24.75;18.30;;;17.50;99.90;;;;;;4996012;28;20092;-85
2023/08/14 06:11:06;;;;;;;31.25;19.33;;;17.50;99.90;;;;;;4996316;28;20030;-85
2023/08/14 06:13:32;;;;;;;27.33;18.25;;;17.50;99.90;;;;;;5000892;28;20041;-85
2023/08/14 06:15:58;;;;;;;31.52;18.63;;;17.60;99.90;;;;;;4994626;28;20030;-85
2023/08/14 06:18:24;;;;;;;24.70;18.00;;;17.70;99.90;;;;;;5008289;28;20034;-86
2023/08/14 06:20:53;;;;;;;31.27;18.52;;;17.70;99.90;;;;;;4997660;28;20030;-85
2023/08/14 06:23:18;;;;;;;25.73;18.42;;;17.70;99.90;;;;;;4992973;28;20033;-86
2023/08/14 06:25:44;;;;;;;24.35;16.73;;;17.80;99.90;;;;;;4978460;28;20018;-85
2023/08/14 06:28:09;;;;;;;23.48;16.13;;;17.80;99.90;;;;;;4991571;28;20034;-85
2023/08/14 06:30:35;;;;;;;25.67;18.00;;;17.80;99.90;;;;;;4989863;28;20380;-86
2023/08/14 06:33:01;;;;;;;26.83;17.40;;;17.80;99.90;;;;;;4983926;28;20070;-87
2023/08/14 06:35:27;;;;;;;24.83;18.60;;;17.90;99.90;;;;;;4997611;28;20502;-87
2023/08/14 06:37:52;;;;;;;25.20;18.58;;;17.90;99.90;;;;;;5006591;28;20026;-86
2023/08/14 06:40:18;;;;;;;24.92;19.30;;;17.90;99.90;;;;;;5014605;28;20113;-86
2023/08/14 06:42:44;;;;;;;23.33;19.38;;;18.00;99.90;;;;;;4997142;28;20030;-87
2023/08/14 06:45:09;;;;;;;33.92;20.17;;;18.10;99.90;;;;;;5005794;28;20025;-88
2023/08/14 06:47:43;;;;;;;25.95;19.60;;;18.10;99.90;;;;;;5014321;28;20084;-86
2023/08/14 06:50:09;;;;;;;24.08;17.58;;;18.20;99.90;;;;;;5017127;28;20028;-87
2023/08/14 06:52:34;;;;;;;25.50;19.45;;;18.30;99.90;;;;;;4987453;28;20026;-87
2023/08/14 06:55:00;;;;;;;25.13;18.60;;;18.40;99.90;;;;;;5012707;28;20045;-86
2023/08/14 06:57:25;;;;;;;26.83;18.73;;;18.60;99.90;;;;;;5013325;28;20076;-88
2023/08/14 06:59:51;;;;;;;22.98;17.15;;;18.80;99.90;;;;;;5010912;28;20030;-86
2023/08/14 07:02:16;;;;;;;28.05;17.92;;;19.00;99.90;;;;;;4993848;28;20040;-87
2023/08/14 07:04:42;;;;;;;23.40;16.55;;;19.20;99.90;;;;;;4998409;28;21766;-88
2023/08/14 07:07:08;;;;;;;27.20;17.58;;;19.40;99.90;;;;;;4999575;28;20044;-85
2023/08/14 07:09:33;;;;;;;17.52;13.18;;;19.60;99.90;;;;;;4996569;28;20033;-85
2023/08/14 07:11:59;;;;;;;23.58;14.02;;;19.70;99.90;;;;;;5007463;28;20044;-85
2023/08/14 07:14:24;;;;;;;22.55;13.23;;;19.80;99.90;;;;;;4997415;28;20072;-85
2023/08/14 07:16:50;;;;;;;22.42;13.10;;;19.90;99.90;;;;;;4995741;28;20030;-85
2023/08/14 07:19:17;;;;;;;17.67;11.48;;;19.90;99.90;;;;;;4989322;28;20425;-85
2023/08/14 07:21:43;;;;;;;24.25;12.30;;;20.10;99.90;;;;;;5013226;28;20095;-85
2023/08/14 07:24:09;;;;;;;22.30;12.20;;;20.20;99.90;;;;;;4985019;28;20113;-86
2023/08/14 07:26:34;;;;;;;24.05;11.63;;;20.40;99.90;;;;;;4996692;28;20136;-85
2023/08/14 07:29:00;;;;;;;21.15;10.07;;;20.60;99.90;;;;;;5000113;28;20018;-87
2023/08/14 07:31:25;;;;;;;20.63;9.82;;;20.80;99.90;;;;;;4997081;28;20041;-86
2023/08/14 07:33:51;;;;;;;16.38;9.48;;;20.90;99.90;;;;;;4995837;28;20456;-87
2023/08/14 07:36:16;;;;;;;16.17;8.80;;;20.90;99.90;;;;;;5014109;28;20029;-87
2023/08/14 07:38:42;;;;;;;15.55;8.85;;;20.80;99.90;;;;;;4996630;28;20474;-85
2023/08/14 07:41:07;;;;;;;14.75;9.45;;;20.80;99.90;;;;;;4993868;28;20042;-85
2023/08/14 07:43:33;;;;;;;17.55;9.80;;;20.80;99.90;;;;;;4996449;28;20026;-85
2023/08/14 07:45:58;;;;;;;16.67;9.77;;;20.80;99.90;;;;;;4976599;28;20090;-86
2023/08/14 07:48:24;;;;;;;16.23;8.90;;;20.80;99.90;;;;;;4994112;28;20030;-86
2023/08/14 07:50:53;;;;;;;16.88;9.10;;;20.80;99.90;;;;;;4995381;28;20026;-86
2023/08/14 07:53:19;;;;;;;15.32;9.52;;;20.80;99.90;;;;;;4995994;28;20501;-86
2023/08/14 07:55:45;;;;;;;16.13;9.35;;;20.80;99.90;;;;;;5006739;28;20041;-86
2023/08/14 07:58:10;;;;;;;19.73;9.32;;;20.80;99.90;;;;;;4995550;28;20030;-86
2023/08/14 08:00:36;;;;;;;14.52;9.18;;;20.80;99.90;;;;;;4989267;28;20052;-86
2023/08/14 08:03:02;;;;;;;13.50;8.93;;;20.80;99.90;;;;;;5017747;28;20026;-86
2023/08/14 08:05:27;;;;;;;15.85;9.75;;;20.90;99.90;;;;;;4994390;28;20057;-85
2023/08/14 08:07:53;;;;;;;14.85;9.75;;;21.00;99.90;;;;;;4994027;28;20040;-87
2023/08/14 08:10:18;;;;;;;16.05;9.40;;;21.10;99.90;;;;;;5001567;28;20521;-86
2023/08/14 08:12:44;;;;;;;17.58;9.60;;;21.20;99.90;;;;;;4983305;28;20032;-86
2023/08/14 08:15:10;;;;;;;13.05;7.80;;;21.20;99.90;;;;;;4990747;28;20085;-86
2023/08/14 08:17:35;;;;;;;15.25;8.75;;;21.30;99.90;;;;;;4995188;28;20121;-86
2023/08/14 08:20:01;;;;;;;9.90;7.70;;;21.40;99.90;;;;;;4993900;28;20528;-87
2023/08/14 08:22:26;;;;;;;13.10;7.68;;;21.50;99.90;;;;;;4993143;28;20435;-84
2023/08/14 08:24:52;;;;;;;14.95;7.35;;;21.70;99.90;;;;;;4996794;28;20502;-85
2023/08/14 08:27:17;;;;;;;13.82;7.30;;;21.80;99.90;;;;;;4992846;28;20043;-87
2023/08/14 08:29:43;;;;;;;15.10;8.57;;;21.90;99.90;;;;;;4993052;28;20018;-86
2023/08/14 08:32:08;;;;;;;17.55;9.13;;;22.00;99.90;;;;;;4992587;28;20034;-87
2023/08/14 08:34:35;;;;;;;13.77;5.95;;;22.10;99.90;;;;;;4994989;28;20041;-85
2023/08/14 08:37:00;;;;;;;14.57;7.30;;;22.20;99.90;;;;;;4995376;28;20021;-86
2023/08/14 08:39:26;;;;;;;13.82;6.40;;;22.20;99.90;;;;;;4993825;28;20173;-86
2023/08/14 08:41:53;;;;;;;12.45;6.88;;;22.30;99.90;;;;;;4994770;28;20159;-87
2023/08/14 08:44:25;;;;;;;11.27;6.85;;;22.30;99.90;;;;;;4990567;28;20025;-87
2023/08/14 08:47:01;;;;;;;11.40;4.93;;;22.40;99.90;;;;;;5000813;28;20123;-87
2023/08/14 08:49:27;;;;;;;12.05;4.50;;;22.50;99.90;;;;;;4994925;28;20028;-86
2023/08/14 08:51:54;;;;;;;14.68;4.55;;;22.60;99.90;;;;;;4991428;28;20022;-87
2023/08/14 08:54:20;;;;;;;11.57;4.53;;;22.70;99.90;;;;;;4984320;28;20056;-87
2023/08/14 08:56:46;;;;;;;8.70;4.75;;;22.70;99.90;;;;;;5005448;28;20120;-86
2023/08/14 08:59:14;;;;;;;11.13;4.85;;;22.80;99.90;;;;;;4981059;28;20026;-87
2023/08/14 09:01:41;;;;;;;10.27;4.15;;;22.80;99.90;;;;;;4998422;28;20130;-87
2023/08/14 09:04:07;;;;;;;15.52;5.63;;;22.90;99.90;;;;;;4995549;28;20030;-88
2023/08/14 09:06:33;;;;;;;9.45;4.03;;;23.00;99.90;;;;;;5003649;28;20446;-86
2023/08/14 09:08:58;;;;;;;8.93;3.65;;;23.10;99.90;;;;;;5014965;28;20026;-85
2023/08/14 09:11:25;;;;;;;8.07;2.80;;;23.20;99.90;;;;;;4999357;28;20090;-86
2023/08/14 09:13:50;;;;;;;8.63;3.08;;;23.20;99.90;;;;;;4997531;28;20085;-88
2023/08/14 09:16:16;;;;;;;8.52;3.22;;;23.30;99.90;;;;;;5003502;28;20042;-87
2023/08/14 09:18:43;;;;;;;7.65;3.20;;;23.40;99.90;;;;;;4997180;28;20022;-87
2023/08/14 09:21:09;;;;;;;8.93;4.30;;;23.40;99.90;;;;;;4995450;28;20061;-85
2023/08/14 09:23:35;;;;;;;8.63;3.47;;;23.40;99.90;;;;;;4998071;28;20029;-86
2023/08/14 09:26:02;;;;;;;8.77;3.40;;;23.50;99.90;;;;;;4995337;28;20026;-86
2023/08/14 09:28:28;;;;;;;8.88;3.22;;;23.60;99.90;;;;;;4999188;28;20398;-86
2023/08/14 09:31:03;;;;;;;6.63;3.03;;;23.60;99.90;;;;;;5014770;28;20033;-86
2023/08/14 09:33:29;;;;;;;10.27;3.13;;;23.70;99.90;;;;;;5013387;28;20046;-86
2023/08/14 09:35:57;;;;;;;6.75;3.05;;;23.80;99.90;;;;;;4999837;28;20402;-86
2023/08/14 09:38:23;;;;;;;10.88;3.30;;;23.80;99.90;;;;;;5014943;28;20425;-86
2023/08/14 09:40:48;;;;;;;8.02;2.40;;;23.90;99.90;;;;;;5015762;28;20092;-84
2023/08/14 09:43:14;;;;;;;8.10;2.05;;;24.00;99.90;;;;;;5014908;28;20022;-85
2023/08/14 09:45:40;;;;;;;8.23;2.13;;;24.10;99.90;;;;;;4984258;28;20062;-86
2023/08/14 09:48:06;;;;;;;5.18;1.45;;;24.10;99.90;;;;;;4993161;28;20127;-86
2023/08/14 09:50:32;;;;;;;5.50;1.80;;;24.20;99.90;;;;;;5014994;28;20022;-86
2023/08/14 09:53:00;;;;;;;5.22;1.73;;;24.30;99.90;;;;;;4995746;28;20379;-86
2023/08/14 09:55:29;;;;;;;5.78;1.85;;;24.40;99.90;;;;;;4984652;28;20388;-86
2023/08/14 09:57:56;;;;;;;8.40;2.53;;;24.50;99.90;;;;;;5003586;28;20028;-87
2023/08/14 10:00:25;;;;;;;5.53;1.63;;;24.50;99.90;;;;;;5005366;28;20066;-86
2023/08/14 10:02:52;;;;;;;9.05;2.10;;;24.50;99.90;;;;;;5010806;28;20058;-86
2023/08/14 10:05:19;;;;;;;7.05;1.85;;;24.60;99.90;;;;;;4994711;28;20178;-85
2023/08/14 10:07:45;;;;;;;6.90;1.77;;;24.70;99.90;;;;;;4993810;28;20042;-86
2023/08/14 10:10:13;;;;;;;6.30;1.85;;;24.60;99.90;;;;;;4995489;28;20045;-86
2023/08/14 10:12:58;;;;;;;7.85;2.17;;;24.60;99.90;;;;;;4996044;28;20094;-86
2023/08/14 10:15:27;;;;;;;4.65;1.15;;;24.70;99.90;;;;;;4996433;28;20039;-86
2023/08/14 10:18:01;;;;;;;4.47;0.90;;;24.90;99.90;;;;;;4992295;28;20098;-85
2023/08/14 10:20:30;;;;;;;5.55;0.77;;;25.10;99.90;;;;;;4991803;28;20487;-84
2023/08/14 10:22:56;;;;;;;7.10;1.40;;;25.20;99.90;;;;;;4976098;28;20046;-86
2023/08/14 10:25:22;;;;;;;4.63;0.90;;;25.40;99.90;;;;;;4983494;28;20101;-86
2023/08/14 10:27:49;;;;;;;5.45;0.82;;;25.50;99.90;;;;;;4994937;28;20129;-86
2023/08/14 10:30:17;;;;;;;5.00;0.85;;;25.60;99.90;;;;;;4990896;28;20022;-87
2023/08/14 10:32:43;;;;;;;4.88;0.82;;;25.60;99.90;;;;;;4993562;28;20037;-87
2023/08/14 10:35:11;;;;;;;2.25;0.52;;;25.60;99.90;;;;;;4990136;28;20442;-87
2023/08/14 10:37:47;;;;;;;4.72;0.50;;;25.50;99.90;;;;;;4981580;28;20031;-86
2023/08/14 10:40:14;;;;;;;3.67;0.50;;;25.40;99.90;;;;;;4984678;28;20033;-85
2023/08/14 10:42:47;;;;;;;2.65;0.40;;;25.50;99.90;;;;;;5010868;28;20116;-86
2023/08/14 10:45:18;;;;;;;5.90;0.60;;;25.50;99.10;;;;;;4994156;28;20502;-86
2023/08/14 10:47:44;;;;;;;2.83;0.55;;;25.50;98.70;;;;;;4995042;28;20034;-85
2023/08/14 10:50:14;;;;;;;2.90;0.50;;;25.60;99.10;;;;;;4985408;28;20018;-85
2023/08/14 10:52:44;;;;;;;2.50;0.50;;;25.70;98.80;;;;;;4985391;28;20038;-85
2023/08/14 10:55:18;;;;;;;2.70;0.50;;;25.70;98.10;;;;;;5007052;28;20050;-86
2023/08/14 10:57:45;;;;;;;3.55;0.55;;;25.70;97.70;;;;;;4997766;28;20030;-85
2023/08/14 11:00:24;;;;;;;5.30;0.77;;;25.70;97.80;;;;;;5013886;28;20021;-85
2023/08/14 11:03:06;;;;;;;2.97;0.52;;;25.80;97.40;;;;;;5014648;28;20030;-86
2023/08/14 11:05:39;;;;;;;3.88;0.52;;;25.90;97.20;;;;;;4997520;28;20028;-86
2023/08/14 11:08:10;;;;;;;3.75;0.60;;;26.00;96.60;;;;;;4996748;28;20119;-86
2023/08/14 11:10:36;;;;;;;2.90;0.30;;;26.00;96.40;;;;;;5004807;28;20475;-87
2023/08/14 11:13:06;;;;;;;7.07;0.50;;;26.00;95.90;;;;;;4995955;28;20030;-87
2023/08/14 11:15:32;;;;;;;4.57;0.50;;;26.10;95.40;;;;;;4997051;28;20501;-87
2023/08/14 11:17:58;;;;;;;5.38;0.50;;;26.10;94.60;;;;;;5003711;28;20483;-86
2023/08/14 11:20:29;;;;;;;4.05;0.50;;;26.30;95.10;;;;;;5011995;28;20101;-86
2023/08/14 11:22:55;;;;;;;3.87;0.70;;;26.30;94.30;;;;;;4996619;28;20494;-86
2023/08/14 11:25:21;;;;;;;4.15;0.43;;;26.30;93.70;;;;;;5014244;28;20026;-86
2023/08/14 11:27:49;;;;;;;4.22;0.63;;;26.40;94.10;;;;;;4993129;28;20510;-86
2023/08/14 11:30:16;;;;;;;4.90;0.70;;;26.50;93.90;;;;;;4996565;28;20050;-86
2023/08/14 11:32:42;;;;;;;4.60;0.45;;;26.50;93.80;;;;;;4996214;28;20061;-87
2023/08/14 11:35:08;;;;;;;5.25;0.65;;;26.50;94.50;;;;;;4980481;28;20101;-87
2023/08/14 11:37:34;;;;;;;4.35;0.40;;;26.60;94.50;;;;;;4982826;28;20493;-86
2023/08/14 11:40:04;;;;;;;3.67;0.60;;;26.60;93.70;;;;;;4996608;28;20109;-85
2023/08/14 11:42:34;;;;;;;3.17;0.50;;;26.70;93.80;;;;;;4994918;28;20038;-87
2023/08/14 11:45:03;;;;;;;2.60;0.50;;;26.70;93.40;;;;;;4996057;28;20026;-86
2023/08/14 11:47:31;;;;;;;2.95;0.50;;;26.70;93.60;;;;;;4989839;28;20034;-86
2023/08/14 11:49:57;;;;;;;4.13;0.55;;;26.70;92.60;;;;;;4980006;28;20034;-87
2023/08/14 11:52:25;;;;;;;3.42;0.40;;;26.80;92.20;;;;;;4992347;28;20034;-86
2023/08/14 11:54:50;;;;;;;3.20;0.40;;;26.80;92.30;;;;;;5000740;28;20494;-86
2023/08/14 11:57:16;;;;;;;2.83;0.50;;;26.80;91.50;;;;;;4977453;28;20038;-85
2023/08/14 11:59:43;;;;;;;4.03;0.50;;;26.80;91.10;;;;;;4985165;28;20037;-86
2023/08/14 12:02:12;;;;;;;3.47;0.60;;;26.80;90.90;;;;;;4994871;28;20037;-86
2023/08/14 12:04:40;;;;;;;3.00;0.40;;;26.80;91.00;;;;;;4982929;28;20034;-85
2023/08/14 12:07:07;;;;;;;4.75;0.52;;;26.80;91.10;;;;;;4992340;28;20096;-86
2023/08/14 12:09:34;;;;;;;4.82;0.43;;;26.90;91.40;;;;;;4995154;28;20042;-86
2023/08/14 12:11:59;;;;;;;4.45;0.50;;;27.00;91.00;;;;;;4988130;28;20045;-85
2023/08/14 12:14:36;;;;;;;4.32;0.43;;;27.00;90.80;;;;;;5009022;28;20029;-85
2023/08/14 12:17:05;;;;;;;3.53;0.50;;;27.00;91.10;;;;;;5009605;28;20048;-86
2023/08/14 12:19:31;;;;;;;3.42;0.60;;;27.10;91.20;;;;;;4995450;28;20132;-86
2023/08/14 12:21:58;;;;;;;3.08;0.50;;;27.10;91.10;;;;;;4986409;28;20124;-87
2023/08/14 12:24:24;;;;;;;3.92;0.40;;;27.20;91.00;;;;;;4993486;28;20102;-86
2023/08/14 12:26:50;;;;;;;3.85;0.70;;;27.20;90.70;;;;;;4988018;28;20129;-87
2023/08/14 12:29:17;;;;;;;4.22;0.40;;;27.20;90.30;;;;;;4995781;28;20030;-87
2023/08/14 12:31:42;;;;;;;7.90;1.10;;;27.20;90.20;;;;;;4994787;28;20028;-87
2023/08/14 12:34:08;;;;;;;2.38;0.43;;;27.20;89.80;;;;;;4995331;28;20113;-87